Patrick Air Force Base
KCOF : now visible

Airfield :











YOU CAN JOIN US ON...

 
LOGIN :

Register | Disclaimer

   EN    FR    IT 

 









Legend :    VFR   Marginal VFR   IFR   Intensive IFR   Very Intensive IFR
Visi :
Ceiling :
>= 8 km
>= 3000ft
5 to 8 km
1000 to 3000 ft
1500m to 5 km
500 to 1000 ft
800 to 1500m
200 to 500 ft
< 800m
< 200 ft
Symbols :   Thunderstorms  Fog  Heavy snow  Heavy precipitations  Wind > 20 kt






- Airport Elevation : 8 ft


KCOF - Patrick Air Force Base

CURRENT METAR :
  • 082056Z AUTO 11007KT 10SM CLR 24/20 A3014 RMK AO2 SLP211 T02430196 55005 $

EXPIRED METARs :
  • 081956Z AUTO 11008KT 10SM CLR 25/20 A3013 RMK AO2 SLP207 T02490195 $
  • 081856Z AUTO 11008KT 10SM CLR 25/19 A3014 RMK AO2 SLP211 T02540188 $

TAF TAF KCOF
Valid from the 08 at 19:00 until the 10 at 01:00 UTC


081900Z 0819/1001 10010KT 9999 FEW045 SCT120 QNH3017INS
BECMG 0907/0908 VRB05KT 9999 FEW035 FEW120 QNH3011INS
BECMG 0918/0919 12009KT 9999 FEW040 SCT250 QNH3004INS TX26/0819Z TN19/0911Z LAST NO AMDS AFT 0822 NEXT 0910



MET'MAP, your aeronautical weather chart ! - Copyright ORBIFLY December 2007 - Disclaimer

ORBIFLY MET'MAP TEAM :

Programming & Development : Alexandra Zaïnal
Concept & original design : Baudouin d'Aumeries
Assistance for programming : Marc-Olivier Méhu
Technical & hardware support : Manuel Goepfert

Contact : metmap@orbifly.com




SOURCES & CREDITS :

   NOAA       Earth
Advisory